Time;durP1;ratioP1;P1;durP2;ratioP2;P2;SDS_P1;SDS_P2;PMS_P1;PMS_P2;Temp;Humidity;BMP_temperature;BMP_pressure;BME280_temperature;BME280_humidity;BME280_pressure;Samples;Min_cycle;Max_cycle;Signal;HPM_P1;HPM_P2
2023/10/15 00:01:53;;;;;;;0.50;0.50;;;9.90;99.90;;;;;;5013778;28;20026;-75
2023/10/15 00:04:19;;;;;;;0.55;0.40;;;9.90;99.90;;;;;;5014398;28;20018;-75
2023/10/15 00:06:45;;;;;;;0.32;0.32;;;9.80;99.90;;;;;;5013757;28;20072;-75
2023/10/15 00:09:13;;;;;;;0.20;0.20;;;9.60;99.90;;;;;;5029369;28;20061;-75
2023/10/15 00:11:40;;;;;;;15.75;1.58;;;9.60;99.90;;;;;;5013883;28;20437;-75
2023/10/15 00:14:06;;;;;;;1.58;1.45;;;9.40;99.90;;;;;;5013993;28;20026;-76
2023/10/15 00:16:33;;;;;;;2.03;1.13;;;9.40;99.90;;;;;;5013829;28;20018;-75
2023/10/15 00:19:09;;;;;;;0.10;0.10;;;9.60;99.90;;;;;;5013672;28;20061;-75
2023/10/15 00:21:35;;;;;;;0.10;0.10;;;9.50;99.90;;;;;;5013820;28;20033;-75
2023/10/15 00:24:05;;;;;;;0.17;0.17;;;9.60;99.90;;;;;;5013823;28;20108;-75
2023/10/15 00:26:31;;;;;;;1.02;0.55;;;9.90;99.90;;;;;;5013873;28;20041;-76
2023/10/15 00:28:57;;;;;;;0.50;0.50;;;10.00;99.90;;;;;;5013604;28;20578;-75
2023/10/15 00:31:24;;;;;;;1.17;1.02;;;9.90;99.90;;;;;;5013373;28;20113;-75
2023/10/15 00:33:50;;;;;;;0.10;0.10;;;9.80;99.90;;;;;;5012286;28;20018;-75
2023/10/15 00:36:16;;;;;;;3.35;1.33;;;10.00;99.90;;;;;;5013514;28;20792;-74
2023/10/15 00:38:46;;;;;;;0.10;0.10;;;9.50;99.90;;;;;;5013289;28;20113;-75
2023/10/15 00:41:15;;;;;;;3.92;3.65;;;9.40;99.90;;;;;;5013472;28;20030;-75
2023/10/15 00:43:52;;;;;;;0.28;0.13;;;9.50;99.90;;;;;;5012024;28;20049;-75
2023/10/15 00:46:18;;;;;;;0.73;0.68;;;9.60;99.90;;;;;;5013476;28;20482;-75
2023/10/15 00:48:46;;;;;;;1.05;0.70;;;9.80;99.90;;;;;;5013328;28;20022;-75
2023/10/15 00:51:17;;;;;;;4.03;1.25;;;9.70;99.90;;;;;;5012192;28;20124;-75
2023/10/15 00:53:58;;;;;;;0.30;0.30;;;9.70;99.90;;;;;;5013190;28;20117;-75
2023/10/15 00:56:33;;;;;;;0.40;0.40;;;9.50;99.90;;;;;;5013245;28;20034;-75
2023/10/15 01:01:38;;;;;;;1.48;1.08;;;9.50;99.90;;;;;;5013275;28;20067;-75
2023/10/15 01:04:09;;;;;;;0.10;0.10;;;9.60;99.90;;;;;;5011886;28;20021;-74
2023/10/15 01:06:40;;;;;;;0.43;0.43;;;9.60;99.90;;;;;;5028484;28;20121;-75
2023/10/15 01:09:18;;;;;;;0.77;0.40;;;9.80;99.90;;;;;;5012726;28;20457;-75
2023/10/15 01:11:50;;;;;;;0.85;0.50;;;9.50;99.90;;;;;;5013113;28;20057;-74
2023/10/15 01:14:25;;;;;;;0.75;0.65;;;9.40;99.90;;;;;;5011517;28;20026;-74
2023/10/15 01:16:52;;;;;;;0.20;0.20;;;9.40;99.90;;;;;;5028242;28;20491;-74
2023/10/15 01:19:31;;;;;;;0.10;0.10;;;9.40;99.90;;;;;;5012875;28;20044;-74
2023/10/15 01:21:58;;;;;;;0.25;0.25;;;9.40;99.90;;;;;;5028077;28;20073;-74
2023/10/15 01:24:26;;;;;;;0.75;0.75;;;9.30;99.90;;;;;;5027862;28;20022;-74
2023/10/15 01:27:14;;;;;;;0.88;0.45;;;9.40;99.90;;;;;;5012808;28;20493;-74
2023/10/15 01:29:48;;;;;;;0.45;0.45;;;9.60;99.90;;;;;;5010768;28;20029;-75
2023/10/15 01:32:18;;;;;;;0.30;0.30;;;9.50;99.90;;;;;;5027995;28;20470;-74
2023/10/15 01:34:45;;;;;;;0.10;0.10;;;9.40;99.90;;;;;;5012797;28;20078;-75
2023/10/15 01:37:15;;;;;;;0.20;0.20;;;9.30;99.90;;;;;;5011547;28;20387;-74
2023/10/15 01:39:47;;;;;;;0.20;0.20;;;9.40;99.90;;;;;;5027758;28;20399;-74
2023/10/15 01:45:09;;;;;;;0.10;0.10;;;9.40;99.90;;;;;;5012859;28;20057;-74
2023/10/15 01:47:36;;;;;;;0.10;0.10;;;9.40;99.90;;;;;;5011209;28;20394;-75
2023/10/15 01:50:08;;;;;;;0.13;0.13;;;9.40;99.90;;;;;;5011800;28;20022;-76
2023/10/15 01:52:42;;;;;;;0.10;0.10;;;9.30;99.90;;;;;;5028131;28;20034;-76
2023/10/15 01:55:08;;;;;;;0.10;0.10;;;9.50;99.90;;;;;;5011315;28;20041;-77
2023/10/15 01:57:37;;;;;;;0.10;0.10;;;9.60;99.90;;;;;;5011177;28;20061;-77
2023/10/15 02:00:14;;;;;;;0.10;0.10;;;9.60;99.90;;;;;;5027677;28;20042;-77
2023/10/15 02:02:43;;;;;;;0.10;0.10;;;9.60;99.90;;;;;;5012535;28;20026;-76
2023/10/15 02:05:28;;;;;;;0.10;0.10;;;9.90;99.90;;;;;;5011233;28;20432;-75
2023/10/15 02:07:56;;;;;;;0.10;0.10;;;9.80;99.90;;;;;;5011512;28;20060;-76
2023/10/15 02:10:28;;;;;;;1.23;0.20;;;9.70;99.90;;;;;;5013285;28;20022;-76
2023/10/15 02:13:04;;;;;;;0.10;0.10;;;9.60;99.90;;;;;;5015913;28;20030;-76
2023/10/15 02:15:37;;;;;;;0.10;0.10;;;9.60;99.90;;;;;;5014492;28;20109;-76
2023/10/15 02:18:06;;;;;;;0.10;0.10;;;9.50;99.90;;;;;;5015021;28;20030;-76
2023/10/15 02:23:19;;;;;;;0.10;0.10;;;9.40;99.90;;;;;;5031367;28;20031;-76
2023/10/15 02:25:48;;;;;;;0.82;0.82;;;9.40;99.90;;;;;;5015285;28;20390;-76
2023/10/15 02:28:24;;;;;;;0.10;0.10;;;9.60;99.90;;;;;;5025823;28;20360;-75
2023/10/15 02:30:58;;;;;;;0.60;0.60;;;9.50;99.90;;;;;;5017436;28;20056;-75
2023/10/15 02:33:25;;;;;;;0.10;0.10;;;9.20;99.90;;;;;;5014004;28;20026;-74
2023/10/15 02:35:54;;;;;;;0.55;0.55;;;9.30;99.90;;;;;;5015668;28;20112;-75
2023/10/15 02:38:26;;;;;;;0.10;0.10;;;9.30;99.90;;;;;;5014208;28;20433;-76
2023/10/15 02:41:04;;;;;;;0.30;0.30;;;9.30;99.90;;;;;;5014063;28;20180;-75
2023/10/15 02:43:40;;;;;;;0.30;0.30;;;9.20;99.90;;;;;;5014395;28;20397;-74
2023/10/15 02:46:22;;;;;;;0.10;0.10;;;9.10;99.90;;;;;;5014139;28;20030;-75
2023/10/15 02:48:53;;;;;;;1.65;0.32;;;9.20;99.90;;;;;;5014044;28;20045;-76
2023/10/15 02:51:23;;;;;;;1.98;1.00;;;9.10;99.90;;;;;;5013814;28;20038;-75
2023/10/15 02:53:54;;;;;;;0.10;0.10;;;9.10;99.90;;;;;;5014158;28;20390;-74
2023/10/15 02:56:21;;;;;;;0.40;0.40;;;9.20;99.90;;;;;;5013548;28;20018;-75
2023/10/15 02:58:47;;;;;;;0.40;0.40;;;9.40;99.90;;;;;;5015244;28;20121;-74
2023/10/15 03:01:23;;;;;;;0.10;0.10;;;9.30;99.90;;;;;;5014056;28;20026;-74
2023/10/15 03:03:52;;;;;;;1.02;0.90;;;9.10;99.90;;;;;;5014042;28;20075;-74
2023/10/15 03:06:19;;;;;;;1.90;1.10;;;9.10;99.90;;;;;;5015236;28;20030;-74
2023/10/15 03:08:48;;;;;;;0.60;0.55;;;9.00;99.90;;;;;;5013921;28;20398;-75
2023/10/15 03:11:18;;;;;;;6.07;1.52;;;9.00;99.90;;;;;;5030352;28;20042;-74
2023/10/15 03:13:50;;;;;;;0.45;0.45;;;9.10;99.90;;;;;;5013828;28;20378;-75
2023/10/15 03:16:24;;;;;;;0.10;0.10;;;9.30;99.90;;;;;;5013686;28;20060;-74
2023/10/15 03:18:52;;;;;;;1.60;1.08;;;9.30;99.90;;;;;;5013586;28;20036;-74
2023/10/15 03:21:24;;;;;;;0.73;0.73;;;9.10;99.90;;;;;;5013873;28;20029;-74
2023/10/15 03:23:52;;;;;;;0.45;0.45;;;9.20;99.90;;;;;;5012640;28;20132;-74
2023/10/15 03:26:18;;;;;;;0.90;0.55;;;9.30;99.90;;;;;;5014723;28;20029;-75
2023/10/15 03:28:51;;;;;;;0.10;0.10;;;9.30;99.90;;;;;;5013497;28;20049;-75
2023/10/15 03:31:25;;;;;;;0.32;0.32;;;9.20;99.90;;;;;;5013438;28;20029;-75
2023/10/15 03:36:30;;;;;;;0.65;0.55;;;9.30;99.90;;;;;;5029842;28;20401;-75
2023/10/15 03:38:58;;;;;;;0.10;0.10;;;9.20;99.90;;;;;;5014020;28;20117;-75
2023/10/15 03:41:29;;;;;;;0.10;0.10;;;9.20;99.90;;;;;;5013293;28;20049;-74
2023/10/15 03:44:02;;;;;;;0.30;0.30;;;9.30;99.90;;;;;;5014446;28;20025;-75
2023/10/15 03:46:33;;;;;;;0.00;0.00;;;9.60;99.90;;;;;;5014428;28;20471;-74
2023/10/15 03:49:00;;;;;;;0.43;0.43;;;9.20;99.90;;;;;;5029525;28;20038;-74
2023/10/15 03:51:27;;;;;;;0.52;0.52;;;9.10;99.90;;;;;;5014381;28;20036;-74
2023/10/15 03:53:52;;;;;;;1.35;1.17;;;9.20;99.90;;;;;;5014220;28;20026;-75
2023/10/15 03:56:28;;;;;;;2.00;0.70;;;9.30;99.90;;;;;;5029479;28;20540;-74
2023/10/15 03:58:54;;;;;;;0.10;0.10;;;9.30;99.90;;;;;;5013113;28;20073;-74
2023/10/15 04:01:20;;;;;;;0.40;0.40;;;9.20;99.90;;;;;;5029128;28;20441;-74
2023/10/15 04:03:49;;;;;;;0.93;0.35;;;9.20;99.90;;;;;;5014160;28;20359;-75
2023/10/15 04:06:19;;;;;;;0.10;0.10;;;9.10;99.90;;;;;;5014034;28;20064;-74
2023/10/15 04:11:44;;;;;;;0.10;0.10;;;9.50;99.90;;;;;;5013988;28;20057;-74
2023/10/15 04:14:28;;;;;;;0.77;0.45;;;9.20;99.90;;;;;;5014114;28;20505;-74
2023/10/15 04:16:57;;;;;;;0.10;0.10;;;9.20;99.90;;;;;;5013401;28;20026;-74
2023/10/15 04:19:25;;;;;;;0.10;0.10;;;9.30;99.90;;;;;;5014020;28;20470;-74
2023/10/15 04:21:53;;;;;;;0.20;0.20;;;9.10;99.90;;;;;;5011924;28;20034;-75
2023/10/15 04:24:28;;;;;;;0.13;0.13;;;9.00;99.90;;;;;;5013812;28;20030;-74
2023/10/15 04:26:54;;;;;;;0.10;0.10;;;8.90;99.90;;;;;;5012285;28;20065;-74
2023/10/15 04:29:21;;;;;;;0.32;0.32;;;9.00;99.90;;;;;;5013912;28;20022;-75
2023/10/15 04:32:00;;;;;;;0.10;0.10;;;9.20;99.90;;;;;;5013438;28;20034;-75
2023/10/15 04:34:29;;;;;;;0.10;0.10;;;9.20;99.90;;;;;;5012946;28;20467;-74
2023/10/15 04:37:10;;;;;;;0.95;0.30;;;8.90;99.90;;;;;;5013239;28;20030;-76
2023/10/15 04:39:51;;;;;;;0.10;0.10;;;9.10;99.90;;;;;;5013270;28;20042;-76
2023/10/15 04:42:36;;;;;;;0.10;0.10;;;9.00;99.90;;;;;;5013461;28;20030;-75
2023/10/15 04:45:02;;;;;;;0.65;0.65;;;9.10;99.90;;;;;;5013609;28;20040;-74
2023/10/15 04:47:38;;;;;;;0.10;0.10;;;8.80;99.90;;;;;;5013277;28;20032;-76
2023/10/15 04:50:14;;;;;;;2.53;1.08;;;8.70;99.90;;;;;;5013409;28;20105;-76
2023/10/15 04:52:43;;;;;;;3.95;1.65;;;8.70;99.90;;;;;;5012995;28;20036;-76
2023/10/15 04:55:12;;;;;;;0.10;0.10;;;8.50;99.90;;;;;;5028427;28;20029;-76
2023/10/15 04:57:39;;;;;;;0.10;0.10;;;8.40;99.90;;;;;;5013395;28;20025;-76
2023/10/15 05:00:07;;;;;;;1.95;0.50;;;8.50;99.90;;;;;;5013152;28;20125;-76
2023/10/15 05:02:34;;;;;;;0.38;0.38;;;8.60;99.90;;;;;;5012388;28;20032;-76
2023/10/15 05:05:05;;;;;;;13.73;0.73;;;8.40;99.90;;;;;;5011626;28;20029;-76
2023/10/15 05:07:32;;;;;;;0.00;0.00;;;8.50;99.90;;;;;;5013035;28;20025;-76
2023/10/15 05:09:59;;;;;;;0.10;0.10;;;8.60;99.90;;;;;;5028182;28;20036;-76
2023/10/15 05:12:28;;;;;;;0.10;0.10;;;8.50;99.90;;;;;;5012037;28;20038;-76
2023/10/15 05:14:54;;;;;;;0.20;0.20;;;8.40;99.90;;;;;;5012791;28;20025;-75
2023/10/15 05:17:20;;;;;;;0.20;0.20;;;8.40;99.90;;;;;;5013087;28;20463;-76
2023/10/15 05:19:54;;;;;;;0.22;0.22;;;8.50;99.90;;;;;;5012627;28;20034;-75
2023/10/15 05:22:20;;;;;;;0.10;0.10;;;8.50;99.90;;;;;;5013079;28;20026;-76
2023/10/15 05:24:46;;;;;;;0.10;0.10;;;8.80;99.90;;;;;;5012524;28;20022;-76
2023/10/15 05:27:12;;;;;;;0.10;0.10;;;8.80;99.90;;;;;;5012945;28;20030;-76
2023/10/15 05:29:39;;;;;;;0.32;0.32;;;8.70;99.90;;;;;;5012920;28;20026;-76
2023/10/15 05:32:06;;;;;;;0.73;0.73;;;9.00;99.90;;;;;;5011464;28;20486;-76
2023/10/15 05:34:32;;;;;;;0.10;0.10;;;9.00;99.90;;;;;;5011269;28;20100;-76
2023/10/15 05:36:58;;;;;;;0.17;0.17;;;9.00;99.90;;;;;;5012726;28;20459;-76
2023/10/15 05:39:24;;;;;;;0.30;0.30;;;9.10;99.90;;;;;;5012564;28;20488;-76
2023/10/15 05:41:51;;;;;;;0.10;0.10;;;9.00;99.90;;;;;;5011512;28;20018;-75
2023/10/15 05:44:20;;;;;;;0.13;0.13;;;8.80;99.90;;;;;;5012757;28;20033;-76
2023/10/15 05:46:46;;;;;;;0.55;0.55;;;8.60;99.90;;;;;;5015537;28;20018;-76
2023/10/15 05:49:12;;;;;;;0.10;0.10;;;8.50;99.90;;;;;;5016309;28;20474;-76
2023/10/15 05:51:38;;;;;;;0.10;0.10;;;8.40;99.90;;;;;;5016653;28;20026;-76
2023/10/15 05:54:04;;;;;;;0.10;0.10;;;8.30;99.90;;;;;;5016617;28;20022;-76
2023/10/15 05:56:30;;;;;;;0.73;0.73;;;8.30;99.90;;;;;;5016578;28;20053;-76
2023/10/15 05:58:57;;;;;;;0.10;0.10;;;8.50;99.90;;;;;;5015780;28;20034;-76
2023/10/15 06:01:23;;;;;;;0.10;0.10;;;8.90;99.90;;;;;;5014621;28;20386;-75
2023/10/15 06:03:49;;;;;;;0.47;0.47;;;8.80;99.90;;;;;;5015851;28;20074;-76
2023/10/15 06:06:16;;;;;;;0.10;0.10;;;9.00;99.90;;;;;;5015770;28;20041;-75
2023/10/15 06:08:43;;;;;;;0.10;0.10;;;8.70;99.90;;;;;;5031334;28;20080;-76
2023/10/15 06:11:09;;;;;;;0.52;0.30;;;8.70;99.90;;;;;;5015779;28;20038;-75
2023/10/15 06:13:35;;;;;;;0.10;0.10;;;8.60;99.90;;;;;;5015827;28;20120;-75
2023/10/15 06:16:02;;;;;;;1.17;0.30;;;8.60;99.90;;;;;;5010785;28;20117;-75
2023/10/15 06:18:28;;;;;;;0.10;0.10;;;8.80;99.90;;;;;;5013319;28;20037;-76
2023/10/15 06:20:54;;;;;;;0.10;0.10;;;8.80;99.90;;;;;;5012909;28;20382;-76
2023/10/15 06:23:20;;;;;;;0.10;0.10;;;8.60;99.90;;;;;;5011507;28;20105;-76
2023/10/15 06:25:46;;;;;;;0.10;0.10;;;9.00;99.90;;;;;;5014387;28;20165;-76
2023/10/15 06:28:14;;;;;;;0.10;0.10;;;9.00;99.90;;;;;;5013275;28;20022;-76
2023/10/15 06:30:43;;;;;;;0.10;0.10;;;8.90;99.90;;;;;;5014771;28;20448;-76
2023/10/15 06:33:09;;;;;;;0.10;0.10;;;8.80;99.90;;;;;;5014715;28;20421;-75
2023/10/15 06:35:35;;;;;;;0.10;0.10;;;8.50;99.90;;;;;;4994509;28;20057;-75
2023/10/15 06:38:01;;;;;;;0.10;0.10;;;8.60;99.90;;;;;;5014190;28;20505;-75
2023/10/15 06:40:28;;;;;;;0.10;0.10;;;8.50;99.90;;;;;;5014169;28;20513;-76
2023/10/15 06:43:00;;;;;;;0.10;0.10;;;8.50;99.90;;;;;;5015043;28;20382;-75
2023/10/15 06:45:27;;;;;;;0.10;0.10;;;8.60;99.90;;;;;;5014350;28;20356;-76
2023/10/15 06:47:53;;;;;;;1.33;1.23;;;8.60;99.90;;;;;;5014125;28;20029;-76
2023/10/15 06:50:19;;;;;;;0.20;0.20;;;8.50;99.90;;;;;;5014211;28;20099;-76
2023/10/15 06:52:46;;;;;;;0.77;0.75;;;8.40;99.90;;;;;;5014322;28;20070;-75
2023/10/15 06:55:13;;;;;;;0.10;0.10;;;8.50;99.90;;;;;;5014083;28;20052;-76
2023/10/15 06:57:40;;;;;;;0.00;0.00;;;8.50;99.90;;;;;;5013476;28;20026;-75
2023/10/15 07:00:10;;;;;;;0.10;0.10;;;8.90;99.90;;;;;;5014093;28;20088;-76
2023/10/15 07:02:37;;;;;;;0.10;0.10;;;9.00;99.90;;;;;;5013085;28;20030;-75
2023/10/15 07:05:04;;;;;;;0.10;0.10;;;9.30;99.90;;;;;;5014256;28;20100;-76
2023/10/15 07:07:31;;;;;;;0.43;0.43;;;9.40;99.90;;;;;;5012772;28;20030;-75
2023/10/15 07:10:01;;;;;;;5.00;1.13;;;9.40;99.90;;;;;;5014565;28;20026;-76
2023/10/15 07:12:26;;;;;;;0.20;0.20;;;9.10;99.90;;;;;;5013990;28;20021;-76
2023/10/15 07:14:52;;;;;;;0.10;0.10;;;9.40;99.90;;;;;;5013569;28;20026;-76
2023/10/15 07:17:18;;;;;;;0.10;0.10;;;9.90;99.90;;;;;;5013675;28;20493;-75
2023/10/15 07:19:44;;;;;;;0.10;0.10;;;9.80;99.90;;;;;;5013705;28;20549;-75
2023/10/15 07:22:10;;;;;;;0.10;0.10;;;9.70;99.90;;;;;;5012768;28;20121;-75
2023/10/15 07:24:36;;;;;;;0.10;0.10;;;9.50;99.90;;;;;;5013077;28;20116;-76
2023/10/15 07:27:01;;;;;;;0.10;0.10;;;9.40;99.90;;;;;;5013624;28;20110;-77
2023/10/15 07:29:28;;;;;;;0.10;0.10;;;9.50;99.90;;;;;;5013479;28;20051;-77
2023/10/15 07:31:54;;;;;;;0.10;0.10;;;9.60;99.90;;;;;;5013162;28;20088;-77
2023/10/15 07:34:22;;;;;;;0.20;0.20;;;9.50;99.90;;;;;;5028806;28;20025;-77
2023/10/15 07:36:51;;;;;;;0.10;0.10;;;9.60;99.90;;;;;;5029176;28;20029;-77
2023/10/15 07:39:17;;;;;;;0.10;0.10;;;9.90;99.90;;;;;;5013209;28;20037;-77
2023/10/15 07:41:45;;;;;;;0.10;0.10;;;10.00;99.90;;;;;;5029227;28;20106;-77
2023/10/15 07:44:13;;;;;;;0.20;0.20;;;10.00;99.90;;;;;;5002307;28;20038;-77
2023/10/15 07:46:39;;;;;;;0.55;0.55;;;9.70;99.90;;;;;;5013698;28;20386;-77
2023/10/15 07:49:05;;;;;;;0.75;0.75;;;9.50;99.90;;;;;;5029209;28;20565;-76
2023/10/15 07:51:31;;;;;;;0.10;0.10;;;9.40;99.90;;;;;;5013496;28;20108;-76
2023/10/15 07:53:57;;;;;;;0.00;0.00;;;9.40;99.90;;;;;;5013856;28;20053;-76
2023/10/15 07:56:22;;;;;;;0.88;0.85;;;9.70;99.90;;;;;;5012062;28;20057;-76
2023/10/15 07:58:50;;;;;;;0.10;0.10;;;9.80;99.90;;;;;;5011940;28;20045;-77
2023/10/15 08:01:16;;;;;;;4.70;3.17;;;10.10;99.90;;;;;;5028701;28;20036;-77
2023/10/15 08:03:42;;;;;;;0.22;0.22;;;10.40;99.90;;;;;;5013556;28;20030;-76
2023/10/15 08:06:08;;;;;;;2.53;2.33;;;10.00;99.90;;;;;;5013392;28;20029;-76
2023/10/15 08:08:34;;;;;;;0.10;0.10;;;9.80;99.90;;;;;;5013135;28;20390;-77
2023/10/15 08:11:01;;;;;;;0.20;0.20;;;9.80;99.90;;;;;;5013374;28;20029;-77
2023/10/15 08:13:27;;;;;;;1.02;1.00;;;10.00;99.90;;;;;;5010557;28;20029;-77
2023/10/15 08:15:54;;;;;;;0.98;0.82;;;10.20;99.90;;;;;;5011505;28;20112;-76
2023/10/15 08:18:20;;;;;;;0.25;0.25;;;10.10;99.90;;;;;;5011031;28;20032;-76
2023/10/15 08:20:46;;;;;;;2.25;0.40;;;9.90;99.90;;;;;;5013145;28;20513;-76
2023/10/15 08:23:13;;;;;;;0.35;0.35;;;9.80;99.90;;;;;;5012936;28;20048;-76
2023/10/15 08:25:39;;;;;;;2.17;0.43;;;10.00;99.90;;;;;;5012474;28;20021;-76
2023/10/15 08:28:05;;;;;;;0.20;0.20;;;10.20;99.90;;;;;;5012703;28;20469;-76
2023/10/15 08:30:32;;;;;;;1.23;0.55;;;10.00;99.90;;;;;;5012651;28;20030;-76
2023/10/15 08:32:58;;;;;;;0.43;0.43;;;10.00;99.90;;;;;;5011723;28;20121;-75
2023/10/15 08:35:24;;;;;;;0.10;0.10;;;10.20;99.90;;;;;;5012655;28;20025;-75
2023/10/15 08:37:50;;;;;;;0.10;0.10;;;10.20;99.90;;;;;;5011710;28;20524;-75
2023/10/15 08:40:17;;;;;;;0.10;0.10;;;10.10;99.90;;;;;;5012325;28;20030;-76
2023/10/15 08:42:56;;;;;;;0.17;0.17;;;10.40;99.90;;;;;;5012415;28;20083;-77
2023/10/15 08:45:23;;;;;;;0.00;0.00;;;10.40;99.90;;;;;;5011076;28;20033;-75
2023/10/15 08:47:51;;;;;;;0.10;0.10;;;10.60;99.90;;;;;;5012588;28;20026;-75
2023/10/15 08:50:20;;;;;;;0.10;0.10;;;11.00;99.90;;;;;;5012497;28;20489;-75
2023/10/15 08:52:46;;;;;;;0.00;0.00;;;11.30;99.90;;;;;;5012445;28;20068;-74
2023/10/15 08:55:13;;;;;;;0.03;0.03;;;11.00;99.90;;;;;;5012726;28;20378;-75
2023/10/15 08:57:41;;;;;;;0.10;0.10;;;10.90;99.90;;;;;;5012203;28;20018;-75
2023/10/15 09:00:25;;;;;;;0.28;0.28;;;10.90;99.90;;;;;;5012400;28;20113;-75
2023/10/15 09:02:56;;;;;;;0.30;0.22;;;10.70;99.90;;;;;;5012462;28;20021;-75
2023/10/15 09:05:25;;;;;;;0.55;0.55;;;10.30;99.90;;;;;;5027322;28;20382;-75
2023/10/15 09:07:54;;;;;;;0.30;0.30;;;10.20;99.90;;;;;;5011278;28;20025;-75
2023/10/15 09:10:20;;;;;;;3.55;1.85;;;10.20;99.90;;;;;;5012337;28;20168;-75
2023/10/15 09:12:50;;;;;;;0.10;0.10;;;10.10;99.90;;;;;;5012244;28;20111;-75
2023/10/15 09:15:17;;;;;;;0.40;0.40;;;10.00;99.90;;;;;;5012019;28;20026;-75
2023/10/15 09:17:59;;;;;;;8.20;0.80;;;10.00;99.90;;;;;;5012381;28;20121;-75
2023/10/15 09:20:32;;;;;;;;;;;10.00;99.90;;;;;;5002790;28;20038;-75
2023/10/15 09:23:00;;;;;;;0.10;0.10;;;10.10;99.90;;;;;;5011950;28;19909;-75
2023/10/15 09:25:27;;;;;;;0.20;0.20;;;10.30;99.90;;;;;;5010741;28;20108;-75
2023/10/15 09:27:56;;;;;;;0.80;0.50;;;10.30;99.90;;;;;;5011089;28;20036;-75
2023/10/15 09:30:26;;;;;;;0.10;0.10;;;10.50;99.90;;;;;;5010796;28;20030;-75
2023/10/15 09:32:54;;;;;;;1.75;1.08;;;10.60;99.90;;;;;;5010800;28;20048;-74
2023/10/15 09:35:21;;;;;;;0.10;0.10;;;10.60;99.90;;;;;;5010575;28;20022;-76
2023/10/15 09:37:47;;;;;;;0.80;0.40;;;10.90;99.90;;;;;;5012290;28;20033;-75
2023/10/15 09:40:19;;;;;;;0.10;0.10;;;11.00;99.90;;;;;;4997537;28;20030;-72
2023/10/15 09:42:49;;;;;;;0.17;0.17;;;11.00;99.90;;;;;;5012228;28;20121;-72
2023/10/15 09:45:18;;;;;;;0.00;0.00;;;11.00;99.90;;;;;;5011350;28;20030;-75
2023/10/15 09:47:49;;;;;;;14.05;0.57;;;11.00;99.90;;;;;;5011993;28;20369;-74
2023/10/15 09:50:25;;;;;;;0.10;0.10;;;11.20;99.90;;;;;;5011729;28;20217;-74
2023/10/15 09:53:00;;;;;;;0.08;0.08;;;11.30;99.90;;;;;;5012164;28;20030;-74
2023/10/15 09:55:28;;;;;;;0.00;0.00;;;11.40;99.90;;;;;;5011301;28;20026;-74
2023/10/15 09:58:01;;;;;;;0.10;0.10;;;11.50;99.90;;;;;;5011957;28;20034;-75
2023/10/15 10:00:47;;;;;;;0.10;0.10;;;11.70;99.90;;;;;;5026285;28;20084;-74
2023/10/15 10:03:37;;;;;;;4.22;0.93;;;12.00;99.90;;;;;;5011558;28;20028;-75
2023/10/15 10:06:30;;;;;;;0.10;0.10;;;12.40;99.90;;;;;;5011885;28;20037;-74
2023/10/15 10:09:24;;;;;;;0.17;0.17;;;12.90;99.90;;;;;;5010530;28;20038;-74
2023/10/15 10:12:11;;;;;;;0.10;0.10;;;13.80;99.90;;;;;;5011355;28;20034;-75
2023/10/15 10:15:05;;;;;;;0.80;0.65;;;14.40;99.90;;;;;;5011526;28;20045;-75
2023/10/15 10:17:32;;;;;;;0.35;0.35;;;13.70;99.90;;;;;;5011864;28;20038;-75
2023/10/15 10:20:03;;;;;;;0.05;0.05;;;13.90;99.90;;;;;;5011639;28;20053;-75
2023/10/15 10:22:29;;;;;;;0.28;0.28;;;14.30;99.90;;;;;;5011749;28;20040;-75
2023/10/15 10:24:59;;;;;;;0.05;0.05;;;13.70;99.90;;;;;;5010019;28;20030;-74
2023/10/15 10:27:25;;;;;;;4.55;0.30;;;13.00;99.90;;;;;;5011610;28;20033;-72
2023/10/15 10:30:14;;;;;;;1.65;0.63;;;12.70;99.90;;;;;;5012010;28;20032;-75
2023/10/15 10:32:41;;;;;;;13.43;0.85;;;12.40;99.90;;;;;;5006599;28;20114;-74
2023/10/15 10:35:23;;;;;;;0.10;0.10;;;11.40;99.90;;;;;;5015320;28;20386;-74
2023/10/15 10:38:05;;;;;;;1.35;0.70;;;10.90;99.90;;;;;;5015684;28;20030;-74
2023/10/15 10:40:41;;;;;;;;;;;10.60;99.90;;;;;;5015549;28;20041;-75
2023/10/15 10:43:15;;;;;;;0.45;0.45;;;10.10;99.90;;;;;;5015519;28;19913;-75
2023/10/15 10:46:00;;;;;;;1.75;0.52;;;9.50;99.90;;;;;;5015284;28;20041;-75
2023/10/15 10:48:28;;;;;;;0.73;0.73;;;9.30;99.90;;;;;;5015582;28;20042;-76
2023/10/15 10:51:21;;;;;;;0.20;0.20;;;9.40;99.90;;;;;;5013912;28;20018;-81
2023/10/15 10:53:56;;;;;;;0.10;0.10;;;9.40;99.90;;;;;;5012709;28;20132;-82
2023/10/15 10:56:24;;;;;;;0.30;0.30;;;9.70;99.90;;;;;;5014092;28;20033;-82
2023/10/15 10:58:57;;;;;;;0.10;0.10;;;9.80;99.90;;;;;;5015413;28;20025;-83
2023/10/15 11:01:23;;;;;;;0.25;0.25;;;10.00;99.90;;;;;;5006803;28;20109;-82
2023/10/15 11:03:52;;;;;;;1.65;0.52;;;9.80;99.90;;;;;;5007748;28;20093;-82
2023/10/15 11:06:18;;;;;;;0.05;0.05;;;10.20;99.90;;;;;;5013016;28;20026;-82
2023/10/15 11:08:47;;;;;;;0.10;0.10;;;10.60;99.90;;;;;;5014485;28;20036;-82
2023/10/15 11:11:14;;;;;;;0.20;0.20;;;10.80;99.90;;;;;;5009742;28;20112;-82
2023/10/15 11:13:39;;;;;;;0.10;0.10;;;11.00;99.90;;;;;;5015133;28;20072;-82
2023/10/15 11:16:05;;;;;;;1.65;1.17;;;11.00;99.90;;;;;;5015043;28;20030;-83
2023/10/15 11:18:34;;;;;;;0.10;0.10;;;11.20;99.90;;;;;;5014559;28;20033;-82
2023/10/15 11:21:00;;;;;;;0.20;0.20;;;11.50;99.90;;;;;;5023019;28;20094;-83
2023/10/15 11:23:26;;;;;;;0.05;0.05;;;11.40;99.90;;;;;;5013681;28;20177;-83
2023/10/15 11:25:56;;;;;;;1.65;0.80;;;12.10;99.90;;;;;;5014947;28;20581;-83
2023/10/15 11:28:24;;;;;;;0.55;0.55;;;12.30;99.90;;;;;;5015225;28;20114;-84
2023/10/15 11:30:50;;;;;;;0.10;0.10;;;12.20;99.90;;;;;;5007851;28;20022;-84
2023/10/15 11:33:17;;;;;;;13.13;1.42;;;12.40;99.90;;;;;;5014749;28;20030;-83
2023/10/15 11:35:48;;;;;;;0.00;0.00;;;11.60;99.90;;;;;;5014704;28;20088;-84
2023/10/15 11:38:14;;;;;;;0.00;0.00;;;12.00;99.90;;;;;;5014572;28;20054;-85
2023/10/15 11:40:45;;;;;;;0.10;0.10;;;12.70;99.90;;;;;;5027421;28;20053;-84
2023/10/15 11:43:21;;;;;;;0.10;0.10;;;12.50;99.90;;;;;;5033621;28;20085;-84
2023/10/15 11:45:47;;;;;;;0.08;0.08;;;12.50;99.90;;;;;;5034331;28;20033;-83
2023/10/15 11:48:14;;;;;;;0.20;0.20;;;12.70;99.90;;;;;;5033103;28;20079;-83
2023/10/15 11:50:44;;;;;;;0.10;0.10;;;12.90;99.90;;;;;;5034381;28;20043;-83
2023/10/15 11:53:23;;;;;;;0.00;0.00;;;14.20;99.90;;;;;;5032583;28;20059;-83
2023/10/15 11:55:53;;;;;;;5.78;1.75;;;15.40;99.90;;;;;;5027402;28;20061;-83
2023/10/15 11:58:27;;;;;;;0.00;0.00;;;14.90;99.90;;;;;;5029789;28;20025;-82
2023/10/15 12:00:56;;;;;;;1.73;1.55;;;15.40;99.90;;;;;;5020952;28;20048;-82
2023/10/15 12:03:22;;;;;;;0.38;0.20;;;15.90;99.90;;;;;;5014226;28;20383;-81
2023/10/15 12:05:49;;;;;;;0.00;0.00;;;15.70;99.90;;;;;;5013847;28;20479;-82
2023/10/15 12:08:21;;;;;;;0.10;0.10;;;14.80;99.90;;;;;;5014085;28;20030;-83
2023/10/15 12:10:48;;;;;;;0.20;0.20;;;14.50;99.90;;;;;;5013729;28;20117;-84
2023/10/15 12:13:17;;;;;;;0.00;0.00;;;13.90;99.90;;;;;;5014139;28;20065;-83
2023/10/15 12:15:43;;;;;;;0.00;0.00;;;14.30;99.90;;;;;;5012741;28;20076;-83
2023/10/15 12:18:08;;;;;;;0.28;0.28;;;14.60;99.90;;;;;;5013985;28;20037;-83
2023/10/15 12:20:35;;;;;;;0.00;0.00;;;15.10;99.90;;;;;;5013732;28;20034;-82
2023/10/15 12:23:00;;;;;;;0.00;0.00;;;15.80;99.90;;;;;;5013983;28;20030;-81
2023/10/15 12:25:26;;;;;;;0.00;0.00;;;16.70;99.90;;;;;;5013948;28;20025;-82
2023/10/15 12:27:52;;;;;;;0.80;0.65;;;17.90;99.90;;;;;;5013670;28;20390;-81
2023/10/15 12:30:27;;;;;;;0.10;0.10;;;17.50;99.90;;;;;;5029106;28;20471;-81
2023/10/15 12:32:54;;;;;;;0.00;0.00;;;16.70;99.90;;;;;;5013508;28;20041;-82
2023/10/15 12:35:21;;;;;;;2.13;0.47;;;16.90;99.90;;;;;;5013352;28;20022;-81
2023/10/15 12:37:49;;;;;;;0.00;0.00;;;16.70;99.90;;;;;;5013617;28;20087;-82
2023/10/15 12:40:21;;;;;;;0.00;0.00;;;16.20;99.90;;;;;;5013853;28;20038;-81
2023/10/15 12:42:51;;;;;;;0.03;0.03;;;14.70;99.90;;;;;;5013353;28;20046;-82
2023/10/15 12:45:19;;;;;;;0.08;0.08;;;13.70;99.90;;;;;;5013560;28;20034;-82
2023/10/15 12:47:45;;;;;;;7.07;0.82;;;13.40;99.90;;;;;;5013657;28;20030;-82
2023/10/15 12:50:16;;;;;;;0.05;0.05;;;12.40;99.90;;;;;;5013262;28;20029;-83
2023/10/15 12:52:45;;;;;;;0.00;0.00;;;12.20;99.90;;;;;;5013698;28;20108;-81
2023/10/15 12:55:11;;;;;;;0.43;0.32;;;11.60;99.90;;;;;;5012726;28;20038;-82
2023/10/15 12:57:37;;;;;;;0.25;0.25;;;11.60;99.90;;;;;;5013375;28;20026;-83
2023/10/15 13:00:11;;;;;;;0.00;0.00;;;11.50;99.90;;;;;;5013130;28;20505;-82
2023/10/15 13:02:38;;;;;;;0.10;0.10;;;11.60;99.90;;;;;;5013182;28;20084;-83
2023/10/15 13:05:05;;;;;;;0.10;0.10;;;11.60;99.90;;;;;;5012789;28;20030;-84
2023/10/15 13:07:31;;;;;;;1.80;0.40;;;11.90;99.90;;;;;;5013171;28;20022;-82
2023/10/15 13:09:58;;;;;;;0.03;0.03;;;11.70;99.90;;;;;;5013447;28;20398;-84
2023/10/15 13:12:25;;;;;;;0.00;0.00;;;12.20;99.90;;;;;;5013616;28;20037;-82
2023/10/15 13:14:50;;;;;;;0.00;0.00;;;13.30;99.90;;;;;;5013913;28;20037;-82
2023/10/15 13:17:16;;;;;;;1.50;1.40;;;14.00;99.90;;;;;;5013259;28;20067;-83
2023/10/15 13:19:44;;;;;;;0.00;0.00;;;13.80;99.90;;;;;;5012561;28;20497;-82